sensor_id;sensor_type;location;lat;lon;timestamp;pressure;altitude;pressure_sealevel;temperature;humidity
22261;BME280;11299;43.202;27.920;2023-04-05T00:00:41;100469.28;;;3.01;100.00
22261;BME280;11299;43.202;27.920;2023-04-05T00:03:07;100539.69;;;3.38;100.00
22261;BME280;11299;43.202;27.920;2023-04-05T00:05:34;100433.34;;;3.04;100.00
22261;BME280;11299;43.202;27.920;2023-04-05T00:08:00;100471.38;;;2.99;100.00
22261;BME280;11299;43.202;27.920;2023-04-05T00:10:27;100495.53;;;3.35;100.00
22261;BME280;11299;43.202;27.920;2023-04-05T00:12:53;100509.19;;;3.28;100.00
22261;BME280;11299;43.202;27.920;2023-04-05T00:15:19;100488.59;;;3.26;100.00
22261;BME280;11299;43.202;27.920;2023-04-05T00:17:44;100486.91;;;3.31;100.00
22261;BME280;11299;43.202;27.920;2023-04-05T00:20:10;100508.75;;;3.31;100.00
22261;BME280;11299;43.202;27.920;2023-04-05T00:22:37;100467.59;;;3.20;100.00
22261;BME280;11299;43.202;27.920;2023-04-05T00:25:05;100447.66;;;2.80;100.00
22261;BME280;11299;43.202;27.920;2023-04-05T00:27:31;100502.28;;;3.19;100.00
22261;BME280;11299;43.202;27.920;2023-04-05T00:29:57;100495.13;;;3.12;100.00
22261;BME280;11299;43.202;27.920;2023-04-05T00:32:22;100535.25;;;3.11;100.00
22261;BME280;11299;43.202;27.920;2023-04-05T00:34:48;100545.34;;;3.17;100.00
22261;BME280;11299;43.202;27.920;2023-04-05T00:37:14;100544.53;;;3.10;100.00
22261;BME280;11299;43.202;27.920;2023-04-05T00:39:39;100555.22;;;3.12;100.00
22261;BME280;11299;43.202;27.920;2023-04-05T00:42:06;100461.31;;;2.86;100.00
22261;BME280;11299;43.202;27.920;2023-04-05T00:44:32;100486.09;;;3.05;100.00
22261;BME280;11299;43.202;27.920;2023-04-05T00:47:04;100522.22;;;3.26;100.00
22261;BME280;11299;43.202;27.920;2023-04-05T00:49:34;100509.63;;;3.25;100.00
22261;BME280;11299;43.202;27.920;2023-04-05T00:52:00;100501.22;;;3.14;100.00
22261;BME280;11299;43.202;27.920;2023-04-05T00:54:27;100342.00;;;1.82;100.00
22261;BME280;11299;43.202;27.920;2023-04-05T00:56:59;100464.88;;;2.87;100.00
22261;BME280;11299;43.202;27.920;2023-04-05T00:59:26;100522.22;;;3.26;100.00
22261;BME280;11299;43.202;27.920;2023-04-05T01:02:10;100440.72;;;2.71;100.00
22261;BME280;11299;43.202;27.920;2023-04-05T01:04:40;100276.59;;;1.09;100.00
22261;BME280;11299;43.202;27.920;2023-04-05T01:07:49;100527.69;;;3.33;100.00
22261;BME280;11299;43.202;27.920;2023-04-05T01:10:21;100521.38;;;3.26;100.00
22261;BME280;11299;43.202;27.920;2023-04-05T01:12:46;100430.22;;;2.68;100.00
22261;BME280;11299;43.202;27.920;2023-04-05T01:15:12;100508.78;;;3.12;100.00
22261;BME280;11299;43.202;27.920;2023-04-05T01:17:38;100405.44;;;2.56;100.00
22261;BME280;11299;43.202;27.920;2023-04-05T01:20:06;100406.69;;;2.41;100.00
22261;BME280;11299;43.202;27.920;2023-04-05T01:23:01;100376.44;;;2.10;100.00
22261;BME280;11299;43.202;27.920;2023-04-05T01:30:50;100542.63;;;3.17;100.00
22261;BME280;11299;43.202;27.920;2023-04-05T01:33:40;100535.06;;;3.19;100.00
22261;BME280;11299;43.202;27.920;2023-04-05T01:36:30;100541.16;;;3.21;100.00
22261;BME280;11299;43.202;27.920;2023-04-05T01:38:58;100527.91;;;3.05;100.00
22261;BME280;11299;43.202;27.920;2023-04-05T01:41:25;100381.50;;;2.26;100.00
22261;BME280;11299;43.202;27.920;2023-04-05T01:43:51;100529.78;;;2.98;100.00
22261;BME280;11299;43.202;27.920;2023-04-05T01:46:17;100549.56;;;3.13;100.00
22261;BME280;11299;43.202;27.920;2023-04-05T01:48:42;100543.25;;;3.06;100.00
22261;BME280;11299;43.202;27.920;2023-04-05T01:51:07;100548.06;;;3.11;100.00
22261;BME280;11299;43.202;27.920;2023-04-05T01:53:33;100539.88;;;2.91;100.00
22261;BME280;11299;43.202;27.920;2023-04-05T01:55:59;100453.72;;;2.43;100.00
22261;BME280;11299;43.202;27.920;2023-04-05T01:58:26;100445.75;;;2.48;100.00
22261;BME280;11299;43.202;27.920;2023-04-05T02:00:53;100526.88;;;2.93;100.00
22261;BME280;11299;43.202;27.920;2023-04-05T02:03:20;100453.28;;;2.39;100.00
22261;BME280;11299;43.202;27.920;2023-04-05T02:05:46;100573.06;;;2.88;100.00
22261;BME280;11299;43.202;27.920;2023-04-05T02:08:11;100520.53;;;2.86;100.00
22261;BME280;11299;43.202;27.920;2023-04-05T02:10:38;100494.50;;;2.70;100.00
22261;BME280;11299;43.202;27.920;2023-04-05T02:13:05;100550.81;;;3.04;100.00
22261;BME280;11299;43.202;27.920;2023-04-05T02:15:30;100494.69;;;2.75;100.00
22261;BME280;11299;43.202;27.920;2023-04-05T02:17:58;100537.78;;;2.80;100.00
22261;BME280;11299;43.202;27.920;2023-04-05T02:20:26;100584.84;;;3.02;100.00
22261;BME280;11299;43.202;27.920;2023-04-05T02:22:52;100513.81;;;2.75;100.00
22261;BME280;11299;43.202;27.920;2023-04-05T02:25:18;100544.06;;;2.94;100.00
22261;BME280;11299;43.202;27.920;2023-04-05T02:27:44;100473.88;;;2.42;100.00
22261;BME280;11299;43.202;27.920;2023-04-05T02:30:10;100533.53;;;2.64;100.00
22261;BME280;11299;43.202;27.920;2023-04-05T02:32:38;100481.44;;;2.53;100.00
22261;BME280;11299;43.202;27.920;2023-04-05T02:35:04;100511.94;;;2.76;100.00
22261;BME280;11299;43.202;27.920;2023-04-05T02:37:30;100505.34;;;2.44;100.00
22261;BME280;11299;43.202;27.920;2023-04-05T02:39:55;100591.72;;;2.65;100.00
22261;BME280;11299;43.202;27.920;2023-04-05T02:42:21;100378.28;;;1.83;100.00
22261;BME280;11299;43.202;27.920;2023-04-05T02:44:46;100365.84;;;1.67;100.00
22261;BME280;11299;43.202;27.920;2023-04-05T02:47:12;100539.00;;;2.71;100.00
22261;BME280;11299;43.202;27.920;2023-04-05T02:49:41;100558.13;;;2.84;100.00
22261;BME280;11299;43.202;27.920;2023-04-05T02:52:06;100459.06;;;1.97;100.00
22261;BME280;11299;43.202;27.920;2023-04-05T02:54:32;100562.56;;;2.85;100.00
22261;BME280;11299;43.202;27.920;2023-04-05T02:56:57;100454.94;;;2.21;100.00
22261;BME280;11299;43.202;27.920;2023-04-05T02:59:26;100571.59;;;2.85;100.00
22261;BME280;11299;43.202;27.920;2023-04-05T03:01:51;100274.50;;;1.11;100.00
22261;BME280;11299;43.202;27.920;2023-04-05T03:04:17;100498.66;;;2.47;100.00
22261;BME280;11299;43.202;27.920;2023-04-05T03:06:43;100574.13;;;2.87;100.00
22261;BME280;11299;43.202;27.920;2023-04-05T03:09:10;100592.84;;;2.97;100.00
22261;BME280;11299;43.202;27.920;2023-04-05T03:11:36;100536.94;;;2.79;100.00
22261;BME280;11299;43.202;27.920;2023-04-05T03:14:01;100578.13;;;2.91;100.00
22261;BME280;11299;43.202;27.920;2023-04-05T03:16:27;100571.41;;;3.00;100.00
22261;BME280;11299;43.202;27.920;2023-04-05T03:18:52;100470.50;;;2.33;100.00
22261;BME280;11299;43.202;27.920;2023-04-05T03:21:18;100552.03;;;2.75;100.00
22261;BME280;11299;43.202;27.920;2023-04-05T03:23:43;100519.63;;;2.46;100.00
22261;BME280;11299;43.202;27.920;2023-04-05T03:26:13;100541.31;;;2.80;100.00
22261;BME280;11299;43.202;27.920;2023-04-05T03:28:39;100520.09;;;2.63;100.00
22261;BME280;11299;43.202;27.920;2023-04-05T03:31:10;100516.53;;;2.62;100.00
22261;BME280;11299;43.202;27.920;2023-04-05T03:33:35;100554.34;;;2.72;100.00
22261;BME280;11299;43.202;27.920;2023-04-05T03:36:02;100558.69;;;2.47;100.00
22261;BME280;11299;43.202;27.920;2023-04-05T03:38:28;100557.28;;;2.70;100.00
22261;BME280;11299;43.202;27.920;2023-04-05T03:40:53;100573.28;;;2.80;100.00
22261;BME280;11299;43.202;27.920;2023-04-05T03:43:18;100613.38;;;2.79;100.00
22261;BME280;11299;43.202;27.920;2023-04-05T03:45:44;100590.28;;;2.88;100.00
22261;BME280;11299;43.202;27.920;2023-04-05T03:48:10;100617.84;;;3.00;100.00
22261;BME280;11299;43.202;27.920;2023-04-05T03:50:35;100602.91;;;2.96;100.00
22261;BME280;11299;43.202;27.920;2023-04-05T03:53:01;100598.28;;;2.90;100.00
22261;BME280;11299;43.202;27.920;2023-04-05T03:55:27;100586.72;;;2.88;100.00
22261;BME280;11299;43.202;27.920;2023-04-05T03:57:53;100561.25;;;2.74;100.00
22261;BME280;11299;43.202;27.920;2023-04-05T04:00:19;100464.56;;;2.17;100.00
22261;BME280;11299;43.202;27.920;2023-04-05T04:02:47;100638.22;;;3.04;100.00
22261;BME280;11299;43.202;27.920;2023-04-05T04:05:15;100617.03;;;3.06;100.00
22261;BME280;11299;43.202;27.920;2023-04-05T04:07:41;100596.19;;;2.92;100.00
22261;BME280;11299;43.202;27.920;2023-04-05T04:10:09;100510.38;;;2.41;100.00
22261;BME280;11299;43.202;27.920;2023-04-05T04:12:35;100491.03;;;2.23;100.00
22261;BME280;11299;43.202;27.920;2023-04-05T04:15:01;100641.38;;;3.01;100.00
22261;BME280;11299;43.202;27.920;2023-04-05T04:17:31;100629.22;;;3.10;100.00
22261;BME280;11299;43.202;27.920;2023-04-05T04:19:57;100495.03;;;2.27;100.00
22261;BME280;11299;43.202;27.920;2023-04-05T04:22:24;100618.88;;;2.99;100.00
22261;BME280;11299;43.202;27.920;2023-04-05T04:24:54;100569.00;;;2.58;100.00
22261;BME280;11299;43.202;27.920;2023-04-05T04:27:19;100676.88;;;3.01;100.00
22261;BME280;11299;43.202;27.920;2023-04-05T04:29:48;100499.50;;;1.87;100.00
22261;BME280;11299;43.202;27.920;2023-04-05T04:32:14;100316.53;;;0.95;100.00
22261;BME280;11299;43.202;27.920;2023-04-05T04:34:43;100541.63;;;2.32;100.00
22261;BME280;11299;43.202;27.920;2023-04-05T04:37:15;100639.03;;;2.92;100.00
22261;BME280;11299;43.202;27.920;2023-04-05T04:39:47;100652.91;;;2.90;100.00
22261;BME280;11299;43.202;27.920;2023-04-05T04:42:16;100676.66;;;2.96;100.00
22261;BME280;11299;43.202;27.920;2023-04-05T04:44:47;100525.41;;;2.11;100.00
22261;BME280;11299;43.202;27.920;2023-04-05T04:47:13;100632.28;;;2.81;100.00
22261;BME280;11299;43.202;27.920;2023-04-05T04:49:42;100619.81;;;2.52;100.00
22261;BME280;11299;43.202;27.920;2023-04-05T04:52:07;100540.34;;;2.21;100.00
22261;BME280;11299;43.202;27.920;2023-04-05T04:54:34;100562.81;;;2.30;100.00
22261;BME280;11299;43.202;27.920;2023-04-05T04:57:01;100649.88;;;2.59;100.00
22261;BME280;11299;43.202;27.920;2023-04-05T04:59:27;100555.19;;;2.12;100.00
22261;BME280;11299;43.202;27.920;2023-04-05T05:01:53;100542.41;;;2.13;100.00
22261;BME280;11299;43.202;27.920;2023-04-05T05:04:18;100689.03;;;2.85;100.00
22261;BME280;11299;43.202;27.920;2023-04-05T05:06:44;100537.22;;;2.24;100.00
22261;BME280;11299;43.202;27.920;2023-04-05T05:09:09;100693.25;;;2.95;100.00
22261;BME280;11299;43.202;27.920;2023-04-05T05:11:35;100616.06;;;2.13;100.00
22261;BME280;11299;43.202;27.920;2023-04-05T05:14:00;100632.31;;;2.88;100.00
22261;BME280;11299;43.202;27.920;2023-04-05T05:16:26;100664.72;;;2.97;100.00
22261;BME280;11299;43.202;27.920;2023-04-05T05:18:53;100656.09;;;3.00;100.00
22261;BME280;11299;43.202;27.920;2023-04-05T05:21:18;100637.13;;;2.79;100.00
22261;BME280;11299;43.202;27.920;2023-04-05T05:23:44;100636.75;;;3.02;100.00
22261;BME280;11299;43.202;27.920;2023-04-05T05:26:10;100660.94;;;3.11;100.00
22261;BME280;11299;43.202;27.920;2023-04-05T05:28:37;100570.03;;;2.44;100.00
22261;BME280;11299;43.202;27.920;2023-04-05T05:31:03;100515.13;;;1.65;100.00
22261;BME280;11299;43.202;27.920;2023-04-05T05:33:29;100554.47;;;2.44;100.00
22261;BME280;11299;43.202;27.920;2023-04-05T05:35:55;100662.38;;;2.94;100.00
22261;BME280;11299;43.202;27.920;2023-04-05T05:38:20;100558.66;;;2.34;100.00
22261;BME280;11299;43.202;27.920;2023-04-05T05:40:47;100589.78;;;2.46;100.00
22261;BME280;11299;43.202;27.920;2023-04-05T05:43:12;100631.88;;;2.84;100.00
22261;BME280;11299;43.202;27.920;2023-04-05T05:45:39;100545.59;;;2.29;100.00
22261;BME280;11299;43.202;27.920;2023-04-05T05:48:05;100638.63;;;2.95;100.00
22261;BME280;11299;43.202;27.920;2023-04-05T05:50:30;100577.63;;;2.61;100.00
22261;BME280;11299;43.202;27.920;2023-04-05T05:53:00;100609.16;;;2.70;100.00
22261;BME280;11299;43.202;27.920;2023-04-05T05:55:25;100594.41;;;2.58;100.00
22261;BME280;11299;43.202;27.920;2023-04-05T05:57:51;100632.31;;;2.88;100.00
22261;BME280;11299;43.202;27.920;2023-04-05T06:00:18;100650.41;;;2.95;100.00
22261;BME280;11299;43.202;27.920;2023-04-05T06:02:44;100643.25;;;2.88;100.00
22261;BME280;11299;43.202;27.920;2023-04-05T06:05:09;100689.53;;;3.15;100.00
22261;BME280;11299;43.202;27.920;2023-04-05T06:07:36;100724.66;;;3.25;100.00
22261;BME280;11299;43.202;27.920;2023-04-05T06:10:03;100627.66;;;2.75;100.00
22261;BME280;11299;43.202;27.920;2023-04-05T06:12:28;100549.00;;;2.38;100.00
22261;BME280;11299;43.202;27.920;2023-04-05T06:14:54;100711.84;;;3.25;100.00
22261;BME280;11299;43.202;27.920;2023-04-05T06:17:20;100626.41;;;2.84;100.00
22261;BME280;11299;43.202;27.920;2023-04-05T06:19:45;100698.41;;;3.30;100.00
22261;BME280;11299;43.202;27.920;2023-04-05T06:22:10;100676.09;;;3.20;100.00
22261;BME280;11299;43.202;27.920;2023-04-05T06:24:36;100554.28;;;2.46;100.00
22261;BME280;11299;43.202;27.920;2023-04-05T06:27:01;100688.72;;;3.34;100.00
22261;BME280;11299;43.202;27.920;2023-04-05T06:29:27;100783.41;;;3.68;100.00
22261;BME280;11299;43.202;27.920;2023-04-05T06:31:54;100741.34;;;3.75;100.00
22261;BME280;11299;43.202;27.920;2023-04-05T06:34:19;100752.28;;;3.62;100.00
22261;BME280;11299;43.202;27.920;2023-04-05T06:36:45;100763.44;;;3.74;100.00
22261;BME280;11299;43.202;27.920;2023-04-05T06:39:10;100619.75;;;3.06;100.00
22261;BME280;11299;43.202;27.920;2023-04-05T06:41:36;100738.81;;;3.54;100.00
22261;BME280;11299;43.202;27.920;2023-04-05T06:44:01;100662.88;;;3.37;100.00
22261;BME280;11299;43.202;27.920;2023-04-05T06:46:27;100746.44;;;3.92;100.00
22261;BME280;11299;43.202;27.920;2023-04-05T06:48:52;100765.34;;;4.00;100.00
22261;BME280;11299;43.202;27.920;2023-04-05T06:51:18;100748.31;;;3.98;100.00
22261;BME280;11299;43.202;27.920;2023-04-05T06:53:44;100736.53;;;3.91;100.00
22261;BME280;11299;43.202;27.920;2023-04-05T06:56:10;100730.84;;;3.99;100.00
22261;BME280;11299;43.202;27.920;2023-04-05T06:58:35;100747.69;;;4.09;100.00
22261;BME280;11299;43.202;27.920;2023-04-05T07:01:01;100724.53;;;3.98;100.00
22261;BME280;11299;43.202;27.920;2023-04-05T07:03:27;100753.56;;;4.25;100.00
22261;BME280;11299;43.202;27.920;2023-04-05T07:05:57;100731.47;;;4.07;100.00
22261;BME280;11299;43.202;27.920;2023-04-05T07:08:24;100749.78;;;4.33;100.00
22261;BME280;11299;43.202;27.920;2023-04-05T07:10:50;100748.06;;;4.32;100.00
22261;BME280;11299;43.202;27.920;2023-04-05T07:13:16;100718.63;;;3.95;100.00
22261;BME280;11299;43.202;27.920;2023-04-05T07:15:45;100801.13;;;4.57;100.00
22261;BME280;11299;43.202;27.920;2023-04-05T07:18:11;100776.50;;;4.50;100.00
22261;BME280;11299;43.202;27.920;2023-04-05T07:20:37;100771.22;;;4.49;100.00
22261;BME280;11299;43.202;27.920;2023-04-05T07:23:03;100762.38;;;4.47;100.00
22261;BME280;11299;43.202;27.920;2023-04-05T07:25:30;100753.97;;;4.42;100.00
22261;BME280;11299;43.202;27.920;2023-04-05T07:27:56;100666.84;;;4.00;100.00
22261;BME280;11299;43.202;27.920;2023-04-05T07:30:21;100757.31;;;4.57;100.00
22261;BME280;11299;43.202;27.920;2023-04-05T07:32:47;100747.19;;;4.57;100.00
22261;BME280;11299;43.202;27.920;2023-04-05T07:35:12;100668.94;;;4.11;100.00
22261;BME280;11299;43.202;27.920;2023-04-05T07:37:38;100753.91;;;4.68;100.00
22261;BME280;11299;43.202;27.920;2023-04-05T07:40:04;100786.28;;;4.97;100.00
22261;BME280;11299;43.202;27.920;2023-04-05T07:42:30;100760.19;;;4.88;100.00
22261;BME280;11299;43.202;27.920;2023-04-05T07:44:56;100776.50;;;5.14;100.00
22261;BME280;11299;43.202;27.920;2023-04-05T07:47:21;100760.53;;;5.05;100.00
22261;BME280;11299;43.202;27.920;2023-04-05T07:49:47;100809.34;;;5.27;100.00
22261;BME280;11299;43.202;27.920;2023-04-05T07:52:13;100757.28;;;5.21;100.00
22261;BME280;11299;43.202;27.920;2023-04-05T07:54:38;100758.47;;;5.38;100.00
22261;BME280;11299;43.202;27.920;2023-04-05T07:57:05;100676.97;;;5.14;100.00
22261;BME280;11299;43.202;27.920;2023-04-05T07:59:31;100799.09;;;5.92;100.00
22261;BME280;11299;43.202;27.920;2023-04-05T08:01:57;100752.94;;;5.75;100.00
22261;BME280;11299;43.202;27.920;2023-04-05T08:04:22;100745.09;;;5.86;100.00
22261;BME280;11299;43.202;27.920;2023-04-05T08:06:50;100725.94;;;5.79;100.00
22261;BME280;11299;43.202;27.920;2023-04-05T08:09:16;100572.94;;;4.94;100.00
22261;BME280;11299;43.202;27.920;2023-04-05T08:11:42;100780.81;;;6.35;100.00
22261;BME280;11299;43.202;27.920;2023-04-05T08:14:07;100626.47;;;5.59;100.00
22261;BME280;11299;43.202;27.920;2023-04-05T08:16:33;100754.22;;;6.53;100.00
22261;BME280;11299;43.202;27.920;2023-04-05T08:18:59;100768.66;;;6.67;100.00
22261;BME280;11299;43.202;27.920;2023-04-05T08:21:25;100675.19;;;6.13;100.00
22261;BME280;11299;43.202;27.920;2023-04-05T08:23:50;100673.59;;;6.05;100.00
22261;BME280;11299;43.202;27.920;2023-04-05T08:26:16;100778.97;;;6.72;100.00
22261;BME280;11299;43.202;27.920;2023-04-05T08:28:42;100762.41;;;6.78;100.00
22261;BME280;11299;43.202;27.920;2023-04-05T08:31:07;100756.63;;;6.86;100.00
22261;BME280;11299;43.202;27.920;2023-04-05T08:33:33;100670.13;;;6.52;100.00
22261;BME280;11299;43.202;27.920;2023-04-05T08:36:16;100780.00;;;7.13;100.00
22261;BME280;11299;43.202;27.920;2023-04-05T08:38:42;100818.31;;;7.08;100.00
22261;BME280;11299;43.202;27.920;2023-04-05T08:41:17;100764.09;;;6.97;100.00
22261;BME280;11299;43.202;27.920;2023-04-05T08:43:57;100717.59;;;6.59;100.00
22261;BME280;11299;43.202;27.920;2023-04-05T08:46:24;100761.63;;;6.89;100.00
22261;BME280;11299;43.202;27.920;2023-04-05T08:48:50;100754.91;;;6.85;100.00
22261;BME280;11299;43.202;27.920;2023-04-05T08:51:20;100790.22;;;7.24;100.00
22261;BME280;11299;43.202;27.920;2023-04-05T08:53:46;100808.25;;;7.20;100.00
22261;BME280;11299;43.202;27.920;2023-04-05T08:56:14;100656.53;;;6.39;100.00
22261;BME280;11299;43.202;27.920;2023-04-05T08:58:47;100784.88;;;7.11;100.00
22261;BME280;11299;43.202;27.920;2023-04-05T09:01:15;100764.19;;;6.91;100.00
22261;BME280;11299;43.202;27.920;2023-04-05T09:03:42;100783.03;;;7.05;100.00
22261;BME280;11299;43.202;27.920;2023-04-05T09:06:09;100751.03;;;6.93;100.00
22261;BME280;11299;43.202;27.920;2023-04-05T09:08:37;100797.25;;;7.20;100.00
22261;BME280;11299;43.202;27.920;2023-04-05T09:11:03;100791.00;;;7.13;100.00
22261;BME280;11299;43.202;27.920;2023-04-05T09:13:29;100680.41;;;6.57;100.00
22261;BME280;11299;43.202;27.920;2023-04-05T09:15:56;100700.94;;;6.73;100.00
22261;BME280;11299;43.202;27.920;2023-04-05T09:18:22;100820.16;;;7.14;100.00
22261;BME280;11299;43.202;27.920;2023-04-05T09:20:47;100683.88;;;6.52;100.00
22261;BME280;11299;43.202;27.920;2023-04-05T09:23:13;100681.19;;;6.46;100.00
22261;BME280;11299;43.202;27.920;2023-04-05T09:25:39;100797.84;;;7.22;100.00
22261;BME280;11299;43.202;27.920;2023-04-05T09:28:07;100801.03;;;7.19;100.00
22261;BME280;11299;43.202;27.920;2023-04-05T09:30:33;100785.31;;;7.26;100.00
22261;BME280;11299;43.202;27.920;2023-04-05T09:33:02;100719.03;;;6.80;100.00
22261;BME280;11299;43.202;27.920;2023-04-05T09:35:29;100851.94;;;7.46;100.00
22261;BME280;11299;43.202;27.920;2023-04-05T09:38:00;100813.44;;;7.10;100.00
22261;BME280;11299;43.202;27.920;2023-04-05T09:43:09;100841.22;;;7.56;100.00
22261;BME280;11299;43.202;27.920;2023-04-05T09:45:39;100818.38;;;7.86;100.00
22261;BME280;11299;43.202;27.920;2023-04-05T09:48:06;100833.50;;;7.95;100.00
22261;BME280;11299;43.202;27.920;2023-04-05T09:50:32;100812.41;;;7.89;100.00
22261;BME280;11299;43.202;27.920;2023-04-05T09:53:05;100727.06;;;7.47;100.00
22261;BME280;11299;43.202;27.920;2023-04-05T09:55:32;100780.94;;;7.67;100.00
22261;BME280;11299;43.202;27.920;2023-04-05T09:57:57;100812.13;;;7.79;100.00
22261;BME280;11299;43.202;27.920;2023-04-05T10:00:23;100796.53;;;7.73;100.00
22261;BME280;11299;43.202;27.920;2023-04-05T10:02:53;100842.03;;;8.05;100.00
22261;BME280;11299;43.202;27.920;2023-04-05T10:05:23;100824.28;;;8.01;100.00
22261;BME280;11299;43.202;27.920;2023-04-05T10:07:49;100816.56;;;8.21;100.00
22261;BME280;11299;43.202;27.920;2023-04-05T10:10:14;100781.66;;;8.03;100.00
22261;BME280;11299;43.202;27.920;2023-04-05T10:12:40;100808.81;;;8.29;100.00
22261;BME280;11299;43.202;27.920;2023-04-05T10:15:10;100735.38;;;8.12;100.00
22261;BME280;11299;43.202;27.920;2023-04-05T10:17:44;100840.63;;;8.90;100.00
22261;BME280;11299;43.202;27.920;2023-04-05T10:20:18;100819.06;;;8.98;100.00
22261;BME280;11299;43.202;27.920;2023-04-05T10:30:49;100814.66;;;9.37;100.00
22261;BME280;11299;43.202;27.920;2023-04-05T10:33:20;100707.22;;;8.79;100.00
22261;BME280;11299;43.202;27.920;2023-04-05T10:39:02;100821.84;;;9.49;100.00
22261;BME280;11299;43.202;27.920;2023-04-05T10:41:39;100829.94;;;9.28;100.00
22261;BME280;11299;43.202;27.920;2023-04-05T10:44:08;100803.28;;;9.22;100.00
22261;BME280;11299;43.202;27.920;2023-04-05T10:46:36;100827.84;;;9.46;100.00
22261;BME280;11299;43.202;27.920;2023-04-05T10:49:07;100782.00;;;8.94;100.00
22261;BME280;11299;43.202;27.920;2023-04-05T10:51:36;100837.84;;;9.36;100.00
22261;BME280;11299;43.202;27.920;2023-04-05T10:54:02;100712.13;;;8.77;100.00
22261;BME280;11299;43.202;27.920;2023-04-05T10:56:27;100830.50;;;9.41;100.00
22261;BME280;11299;43.202;27.920;2023-04-05T10:58:54;100861.84;;;9.24;100.00
22261;BME280;11299;43.202;27.920;2023-04-05T11:01:20;100854.50;;;9.29;100.00
22261;BME280;11299;43.202;27.920;2023-04-05T11:03:48;100828.72;;;9.35;100.00
22261;BME280;11299;43.202;27.920;2023-04-05T11:06:31;100728.31;;;8.74;100.00
22261;BME280;11299;43.202;27.920;2023-04-05T11:09:19;100813.41;;;9.05;100.00
22261;BME280;11299;43.202;27.920;2023-04-05T11:11:50;100794.69;;;8.95;100.00
22261;BME280;11299;43.202;27.920;2023-04-05T11:14:34;100852.88;;;9.05;100.00
22261;BME280;11299;43.202;27.920;2023-04-05T11:17:00;100725.47;;;8.45;100.00
22261;BME280;11299;43.202;27.920;2023-04-05T11:22:10;100728.56;;;8.49;100.00
22261;BME280;11299;43.202;27.920;2023-04-05T11:24:57;100809.09;;;8.86;100.00
22261;BME280;11299;43.202;27.920;2023-04-05T11:27:30;100847.34;;;8.82;100.00
22261;BME280;11299;43.202;27.920;2023-04-05T11:29:57;100810.09;;;8.80;100.00
22261;BME280;11299;43.202;27.920;2023-04-05T11:32:37;100817.84;;;9.06;100.00
22261;BME280;11299;43.202;27.920;2023-04-05T11:35:16;100836.56;;;9.15;100.00
22261;BME280;11299;43.202;27.920;2023-04-05T11:37:54;100823.22;;;9.24;100.00
22261;BME280;11299;43.202;27.920;2023-04-05T11:40:27;100836.72;;;9.48;100.00
22261;BME280;11299;43.202;27.920;2023-04-05T11:43:06;100895.84;;;9.76;100.00
22261;BME280;11299;43.202;27.920;2023-04-05T11:45:33;100755.63;;;8.98;100.00
22261;BME280;11299;43.202;27.920;2023-04-05T11:48:03;100874.66;;;9.53;100.00
22261;BME280;11299;43.202;27.920;2023-04-05T11:50:30;100824.88;;;9.36;100.00
22261;BME280;11299;43.202;27.920;2023-04-05T11:53:15;100858.94;;;9.42;100.00
22261;BME280;11299;43.202;27.920;2023-04-05T11:55:48;100818.03;;;9.27;100.00
22261;BME280;11299;43.202;27.920;2023-04-05T11:58:19;100864.75;;;9.29;100.00
22261;BME280;11299;43.202;27.920;2023-04-05T12:01:02;100861.38;;;9.04;100.00
22261;BME280;11299;43.202;27.920;2023-04-05T12:03:28;100831.28;;;8.68;100.00
22261;BME280;11299;43.202;27.920;2023-04-05T12:05:56;100844.00;;;9.03;100.00
22261;BME280;11299;43.202;27.920;2023-04-05T12:08:22;100750.28;;;8.57;100.00
22261;BME280;11299;43.202;27.920;2023-04-05T12:10:58;100853.56;;;9.35;100.00
22261;BME280;11299;43.202;27.920;2023-04-05T12:13:30;100814.94;;;9.12;100.00
22261;BME280;11299;43.202;27.920;2023-04-05T12:16:00;100809.16;;;9.25;100.00
22261;BME280;11299;43.202;27.920;2023-04-05T12:18:26;100842.69;;;9.69;100.00
22261;BME280;11299;43.202;27.920;2023-04-05T12:20:53;100793.75;;;9.52;100.00
22261;BME280;11299;43.202;27.920;2023-04-05T12:23:20;100812.94;;;9.87;100.00
22261;BME280;11299;43.202;27.920;2023-04-05T12:25:47;100786.75;;;9.62;100.00
22261;BME280;11299;43.202;27.920;2023-04-05T12:28:13;100839.13;;;9.85;100.00
22261;BME280;11299;43.202;27.920;2023-04-05T12:30:55;100831.78;;;10.18;100.00
22261;BME280;11299;43.202;27.920;2023-04-05T12:33:28;100767.97;;;9.75;100.00
22261;BME280;11299;43.202;27.920;2023-04-05T12:35:54;100823.75;;;10.17;100.00
22261;BME280;11299;43.202;27.920;2023-04-05T12:38:20;100812.63;;;10.12;100.00
22261;BME280;11299;43.202;27.920;2023-04-05T12:40:51;100756.56;;;9.72;100.00
22261;BME280;11299;43.202;27.920;2023-04-05T12:43:16;100822.16;;;9.93;100.00
22261;BME280;11299;43.202;27.920;2023-04-05T12:45:44;100835.88;;;9.88;100.00
22261;BME280;11299;43.202;27.920;2023-04-05T12:48:12;100809.69;;;10.07;100.00
22261;BME280;11299;43.202;27.920;2023-04-05T12:50:45;100814.66;;;10.05;100.00
22261;BME280;11299;43.202;27.920;2023-04-05T12:53:18;100800.13;;;10.09;100.00
22261;BME280;11299;43.202;27.920;2023-04-05T12:55:50;100837.91;;;10.20;100.00
22261;BME280;11299;43.202;27.920;2023-04-05T12:58:17;100744.84;;;9.36;100.00
22261;BME280;11299;43.202;27.920;2023-04-05T13:00:44;100827.06;;;9.74;100.00
22261;BME280;11299;43.202;27.920;2023-04-05T13:03:18;100843.81;;;9.84;100.00
22261;BME280;11299;43.202;27.920;2023-04-05T13:05:47;100822.63;;;9.90;100.00